Fancy Gap, Virginia
Current Conditions -  °F | °C
As of 8:35 AM on Friday 28 Nov 2014 (Local Time) from KHLX Reporting Station
Overcast Overcast  
Wind Chill: 15°   Ceiling: 2300
Heat Index: 24°   Visibility: 10mi
Dew Point: 15°   Wind: 8mph
Humidity: 70%   Direction: 320°NW
Pressure: 30.26"   Gusts: NA
Location:  36.67°N, 80.69°W
Report Text: KHLX 281335Z AUTO 32007KT 10SM OVC023 M05/M09 A3026 RMK AO2 T10461093
Loading
Personal Weather Stations






























Interactive Weather Map New forecast layout! Learn more

10-Day Weather Forecast

Advertisements
Track Severe Weather on mobile